sensor_id;sensor_type;location;lat;lon;timestamp;temperature;humidity
32348;DHT22;18821;44.800;10.326;2022-11-20T00:01:15;9.50;99.90
32348;DHT22;18821;44.800;10.326;2022-11-20T00:03:41;9.50;99.90
32348;DHT22;18821;44.800;10.326;2022-11-20T00:06:13;9.50;99.90
32348;DHT22;18821;44.800;10.326;2022-11-20T00:08:39;9.50;99.90
32348;DHT22;18821;44.800;10.326;2022-11-20T00:11:13;9.50;99.90
32348;DHT22;18821;44.800;10.326;2022-11-20T00:13:40;9.40;99.90
32348;DHT22;18821;44.800;10.326;2022-11-20T00:16:09;9.50;99.90
32348;DHT22;18821;44.800;10.326;2022-11-20T00:18:36;9.40;99.90
32348;DHT22;18821;44.800;10.326;2022-11-20T00:21:07;9.40;99.90
32348;DHT22;18821;44.800;10.326;2022-11-20T00:23:33;9.40;99.90
32348;DHT22;18821;44.800;10.326;2022-11-20T00:26:07;9.50;99.90
32348;DHT22;18821;44.800;10.326;2022-11-20T00:28:34;9.50;99.90
32348;DHT22;18821;44.800;10.326;2022-11-20T00:31:11;9.50;99.90
32348;DHT22;18821;44.800;10.326;2022-11-20T00:33:37;9.50;99.90
32348;DHT22;18821;44.800;10.326;2022-11-20T00:36:07;9.50;99.90
32348;DHT22;18821;44.800;10.326;2022-11-20T00:38:34;9.50;99.90
32348;DHT22;18821;44.800;10.326;2022-11-20T00:41:08;9.50;99.90
32348;DHT22;18821;44.800;10.326;2022-11-20T00:43:35;9.50;99.90
32348;DHT22;18821;44.800;10.326;2022-11-20T00:46:06;9.40;99.90
32348;DHT22;18821;44.800;10.326;2022-11-20T00:48:32;9.40;99.90
32348;DHT22;18821;44.800;10.326;2022-11-20T00:50:59;9.40;99.90
32348;DHT22;18821;44.800;10.326;2022-11-20T00:53:25;9.50;99.90
32348;DHT22;18821;44.800;10.326;2022-11-20T00:56:02;9.50;99.90
32348;DHT22;18821;44.800;10.326;2022-11-20T00:58:33;9.50;99.90
32348;DHT22;18821;44.800;10.326;2022-11-20T01:01:05;9.50;99.90
32348;DHT22;18821;44.800;10.326;2022-11-20T01:03:32;9.50;99.90
32348;DHT22;18821;44.800;10.326;2022-11-20T01:06:02;9.50;99.90
32348;DHT22;18821;44.800;10.326;2022-11-20T01:08:33;9.50;99.90
32348;DHT22;18821;44.800;10.326;2022-11-20T01:11:04;9.40;99.90
32348;DHT22;18821;44.800;10.326;2022-11-20T01:13:31;9.50;99.90
32348;DHT22;18821;44.800;10.326;2022-11-20T01:16:17;9.50;99.90
32348;DHT22;18821;44.800;10.326;2022-11-20T01:18:46;9.50;99.90
32348;DHT22;18821;44.800;10.326;2022-11-20T01:21:19;9.40;99.90
32348;DHT22;18821;44.800;10.326;2022-11-20T01:23:46;9.40;99.90
32348;DHT22;18821;44.800;10.326;2022-11-20T01:26:16;9.40;99.90
32348;DHT22;18821;44.800;10.326;2022-11-20T01:28:42;9.40;99.90
32348;DHT22;18821;44.800;10.326;2022-11-20T01:31:18;9.40;99.90
32348;DHT22;18821;44.800;10.326;2022-11-20T01:33:45;9.40;99.90
32348;DHT22;18821;44.800;10.326;2022-11-20T01:36:12;9.40;99.90
32348;DHT22;18821;44.800;10.326;2022-11-20T01:38:39;9.40;99.90
32348;DHT22;18821;44.800;10.326;2022-11-20T01:41:06;9.40;99.90
32348;DHT22;18821;44.800;10.326;2022-11-20T01:43:33;9.30;99.90
32348;DHT22;18821;44.800;10.326;2022-11-20T01:46:18;9.40;99.90
32348;DHT22;18821;44.800;10.326;2022-11-20T01:48:49;9.30;99.90
32348;DHT22;18821;44.800;10.326;2022-11-20T01:51:27;9.30;99.90
32348;DHT22;18821;44.800;10.326;2022-11-20T01:53:57;9.20;99.90
32348;DHT22;18821;44.800;10.326;2022-11-20T01:56:25;9.20;99.90
32348;DHT22;18821;44.800;10.326;2022-11-20T01:58:58;9.10;99.90
32348;DHT22;18821;44.800;10.326;2022-11-20T02:01:24;9.10;99.90
32348;DHT22;18821;44.800;10.326;2022-11-20T02:03:50;9.10;99.90
32348;DHT22;18821;44.800;10.326;2022-11-20T02:06:22;9.10;99.90
32348;DHT22;18821;44.800;10.326;2022-11-20T02:08:49;9.10;99.90
32348;DHT22;18821;44.800;10.326;2022-11-20T02:11:15;9.10;99.90
32348;DHT22;18821;44.800;10.326;2022-11-20T02:13:41;9.00;99.90
32348;DHT22;18821;44.800;10.326;2022-11-20T02:16:16;9.00;99.90
32348;DHT22;18821;44.800;10.326;2022-11-20T02:18:43;9.00;99.90
32348;DHT22;18821;44.800;10.326;2022-11-20T02:24:01;8.90;99.90
32348;DHT22;18821;44.800;10.326;2022-11-20T02:26:30;8.80;99.90
32348;DHT22;18821;44.800;10.326;2022-11-20T02:28:57;8.80;99.90
32348;DHT22;18821;44.800;10.326;2022-11-20T02:31:24;8.80;99.90
32348;DHT22;18821;44.800;10.326;2022-11-20T02:33:56;8.80;99.90
32348;DHT22;18821;44.800;10.326;2022-11-20T02:36:24;8.80;99.90
32348;DHT22;18821;44.800;10.326;2022-11-20T02:38:52;8.80;99.90
32348;DHT22;18821;44.800;10.326;2022-11-20T02:41:18;8.80;99.90
32348;DHT22;18821;44.800;10.326;2022-11-20T02:43:44;8.80;99.90
32348;DHT22;18821;44.800;10.326;2022-11-20T02:46:10;8.80;99.90
32348;DHT22;18821;44.800;10.326;2022-11-20T02:48:36;8.80;99.90
32348;DHT22;18821;44.800;10.326;2022-11-20T02:51:02;8.70;99.90
32348;DHT22;18821;44.800;10.326;2022-11-20T02:53:28;8.80;99.90
32348;DHT22;18821;44.800;10.326;2022-11-20T02:55:54;8.70;99.90
32348;DHT22;18821;44.800;10.326;2022-11-20T02:58:21;8.70;99.90
32348;DHT22;18821;44.800;10.326;2022-11-20T03:00:47;8.70;99.90
32348;DHT22;18821;44.800;10.326;2022-11-20T03:03:14;8.70;99.90
32348;DHT22;18821;44.800;10.326;2022-11-20T03:05:40;8.60;99.90
32348;DHT22;18821;44.800;10.326;2022-11-20T03:08:05;8.70;99.90
32348;DHT22;18821;44.800;10.326;2022-11-20T03:10:31;8.60;99.90
32348;DHT22;18821;44.800;10.326;2022-11-20T03:12:57;8.60;99.90
32348;DHT22;18821;44.800;10.326;2022-11-20T03:15:24;8.50;99.90
32348;DHT22;18821;44.800;10.326;2022-11-20T03:17:53;8.50;99.90
32348;DHT22;18821;44.800;10.326;2022-11-20T03:20:20;8.50;99.90
32348;DHT22;18821;44.800;10.326;2022-11-20T03:22:46;8.50;99.90
32348;DHT22;18821;44.800;10.326;2022-11-20T03:25:12;8.50;99.90
32348;DHT22;18821;44.800;10.326;2022-11-20T03:27:37;8.50;99.90
32348;DHT22;18821;44.800;10.326;2022-11-20T03:30:04;8.50;99.90
32348;DHT22;18821;44.800;10.326;2022-11-20T03:32:31;8.50;99.90
32348;DHT22;18821;44.800;10.326;2022-11-20T03:34:58;8.50;99.90
32348;DHT22;18821;44.800;10.326;2022-11-20T03:37:24;8.40;99.90
32348;DHT22;18821;44.800;10.326;2022-11-20T03:39:50;8.40;99.90
32348;DHT22;18821;44.800;10.326;2022-11-20T03:42:16;8.40;99.90
32348;DHT22;18821;44.800;10.326;2022-11-20T03:45:00;8.30;99.90
32348;DHT22;18821;44.800;10.326;2022-11-20T03:47:26;8.20;99.90
32348;DHT22;18821;44.800;10.326;2022-11-20T03:49:52;8.20;99.90
32348;DHT22;18821;44.800;10.326;2022-11-20T03:52:18;8.20;99.90
32348;DHT22;18821;44.800;10.326;2022-11-20T03:54:44;8.20;99.90
32348;DHT22;18821;44.800;10.326;2022-11-20T03:57:09;8.20;99.90
32348;DHT22;18821;44.800;10.326;2022-11-20T03:59:35;8.10;99.90
32348;DHT22;18821;44.800;10.326;2022-11-20T04:02:01;8.10;99.90
32348;DHT22;18821;44.800;10.326;2022-11-20T04:04:27;8.20;99.90
32348;DHT22;18821;44.800;10.326;2022-11-20T04:06:53;8.10;99.90
32348;DHT22;18821;44.800;10.326;2022-11-20T04:09:19;8.20;99.90
32348;DHT22;18821;44.800;10.326;2022-11-20T04:11:45;8.20;99.90
32348;DHT22;18821;44.800;10.326;2022-11-20T04:14:15;8.20;99.90
32348;DHT22;18821;44.800;10.326;2022-11-20T04:16:42;8.20;99.90
32348;DHT22;18821;44.800;10.326;2022-11-20T04:19:13;8.10;99.90
32348;DHT22;18821;44.800;10.326;2022-11-20T04:21:42;8.20;99.90
32348;DHT22;18821;44.800;10.326;2022-11-20T04:24:08;8.20;99.90
32348;DHT22;18821;44.800;10.326;2022-11-20T04:26:34;8.20;99.90
32348;DHT22;18821;44.800;10.326;2022-11-20T04:29:00;8.20;99.90
32348;DHT22;18821;44.800;10.326;2022-11-20T04:31:32;8.20;99.90
32348;DHT22;18821;44.800;10.326;2022-11-20T04:34:03;8.10;99.90
32348;DHT22;18821;44.800;10.326;2022-11-20T04:36:30;8.10;99.90
32348;DHT22;18821;44.800;10.326;2022-11-20T04:38:59;8.10;99.90
32348;DHT22;18821;44.800;10.326;2022-11-20T04:41:28;8.10;99.90
32348;DHT22;18821;44.800;10.326;2022-11-20T04:43:56;8.00;99.90
32348;DHT22;18821;44.800;10.326;2022-11-20T04:46:26;8.00;99.90
32348;DHT22;18821;44.800;10.326;2022-11-20T04:48:53;8.00;99.90
32348;DHT22;18821;44.800;10.326;2022-11-20T04:51:19;8.00;99.90
32348;DHT22;18821;44.800;10.326;2022-11-20T04:53:45;8.00;99.90
32348;DHT22;18821;44.800;10.326;2022-11-20T04:56:12;8.00;99.90
32348;DHT22;18821;44.800;10.326;2022-11-20T04:58:39;7.90;99.90
32348;DHT22;18821;44.800;10.326;2022-11-20T05:01:13;7.90;99.90
32348;DHT22;18821;44.800;10.326;2022-11-20T05:03:42;7.80;99.90
32348;DHT22;18821;44.800;10.326;2022-11-20T05:06:10;7.80;99.90
32348;DHT22;18821;44.800;10.326;2022-11-20T05:08:36;7.80;99.90
32348;DHT22;18821;44.800;10.326;2022-11-20T05:11:04;7.80;99.90
32348;DHT22;18821;44.800;10.326;2022-11-20T05:13:30;7.80;99.90
32348;DHT22;18821;44.800;10.326;2022-11-20T05:16:02;7.70;99.90
32348;DHT22;18821;44.800;10.326;2022-11-20T05:18:29;7.70;99.90
32348;DHT22;18821;44.800;10.326;2022-11-20T05:20:56;7.70;99.90
32348;DHT22;18821;44.800;10.326;2022-11-20T05:23:24;7.70;99.90
32348;DHT22;18821;44.800;10.326;2022-11-20T05:25:54;7.70;99.90
32348;DHT22;18821;44.800;10.326;2022-11-20T05:28:21;7.70;99.90
32348;DHT22;18821;44.800;10.326;2022-11-20T05:30:47;7.60;99.90
32348;DHT22;18821;44.800;10.326;2022-11-20T05:33:13;7.50;99.90
32348;DHT22;18821;44.800;10.326;2022-11-20T05:35:39;7.50;99.90
32348;DHT22;18821;44.800;10.326;2022-11-20T05:38:06;7.50;99.90
32348;DHT22;18821;44.800;10.326;2022-11-20T05:40:32;7.50;99.90
32348;DHT22;18821;44.800;10.326;2022-11-20T05:42:58;7.50;99.90
32348;DHT22;18821;44.800;10.326;2022-11-20T05:45:24;7.50;99.90
32348;DHT22;18821;44.800;10.326;2022-11-20T05:47:49;7.60;99.90
32348;DHT22;18821;44.800;10.326;2022-11-20T05:50:15;7.50;99.90
32348;DHT22;18821;44.800;10.326;2022-11-20T05:52:42;7.50;99.90
32348;DHT22;18821;44.800;10.326;2022-11-20T05:55:08;7.40;99.90
32348;DHT22;18821;44.800;10.326;2022-11-20T05:57:34;7.30;99.90
32348;DHT22;18821;44.800;10.326;2022-11-20T06:00:00;7.30;99.90
32348;DHT22;18821;44.800;10.326;2022-11-20T06:02:26;7.20;99.90
32348;DHT22;18821;44.800;10.326;2022-11-20T06:04:53;7.20;99.90
32348;DHT22;18821;44.800;10.326;2022-11-20T06:07:19;7.10;99.90
32348;DHT22;18821;44.800;10.326;2022-11-20T06:09:45;7.00;99.90
32348;DHT22;18821;44.800;10.326;2022-11-20T06:12:11;7.00;99.90
32348;DHT22;18821;44.800;10.326;2022-11-20T06:14:36;6.90;99.90
32348;DHT22;18821;44.800;10.326;2022-11-20T06:17:02;7.00;99.90
32348;DHT22;18821;44.800;10.326;2022-11-20T06:19:28;6.90;99.90
32348;DHT22;18821;44.800;10.326;2022-11-20T06:21:54;6.90;99.90
32348;DHT22;18821;44.800;10.326;2022-11-20T06:24:20;6.90;99.90
32348;DHT22;18821;44.800;10.326;2022-11-20T06:26:46;6.90;99.90
32348;DHT22;18821;44.800;10.326;2022-11-20T06:29:12;6.90;99.90
32348;DHT22;18821;44.800;10.326;2022-11-20T06:31:38;6.90;99.90
32348;DHT22;18821;44.800;10.326;2022-11-20T06:34:04;7.00;99.90
32348;DHT22;18821;44.800;10.326;2022-11-20T06:36:32;7.00;99.90
32348;DHT22;18821;44.800;10.326;2022-11-20T06:38:58;7.10;99.90
32348;DHT22;18821;44.800;10.326;2022-11-20T06:41:24;7.10;99.90
32348;DHT22;18821;44.800;10.326;2022-11-20T06:43:51;7.20;99.90
32348;DHT22;18821;44.800;10.326;2022-11-20T06:46:18;7.10;99.90
32348;DHT22;18821;44.800;10.326;2022-11-20T06:48:45;7.10;99.90
32348;DHT22;18821;44.800;10.326;2022-11-20T06:51:11;7.20;99.90
32348;DHT22;18821;44.800;10.326;2022-11-20T06:53:37;7.20;99.90
32348;DHT22;18821;44.800;10.326;2022-11-20T06:56:04;7.30;99.90
32348;DHT22;18821;44.800;10.326;2022-11-20T06:58:33;7.30;99.90
32348;DHT22;18821;44.800;10.326;2022-11-20T07:01:10;7.40;99.90
32348;DHT22;18821;44.800;10.326;2022-11-20T07:03:37;7.30;99.90
32348;DHT22;18821;44.800;10.326;2022-11-20T07:06:04;7.20;99.90
32348;DHT22;18821;44.800;10.326;2022-11-20T07:08:30;7.20;99.90
32348;DHT22;18821;44.800;10.326;2022-11-20T07:10:58;7.10;99.90
32348;DHT22;18821;44.800;10.326;2022-11-20T07:13:25;7.10;99.90
32348;DHT22;18821;44.800;10.326;2022-11-20T07:15:51;7.20;99.90
32348;DHT22;18821;44.800;10.326;2022-11-20T07:18:17;7.30;99.90
32348;DHT22;18821;44.800;10.326;2022-11-20T07:20:43;7.30;99.90
32348;DHT22;18821;44.800;10.326;2022-11-20T07:23:09;7.20;99.90
32348;DHT22;18821;44.800;10.326;2022-11-20T07:25:35;7.20;99.90
32348;DHT22;18821;44.800;10.326;2022-11-20T07:28:02;7.20;99.90
32348;DHT22;18821;44.800;10.326;2022-11-20T07:30:29;7.20;99.90
32348;DHT22;18821;44.800;10.326;2022-11-20T07:32:56;7.20;99.90
32348;DHT22;18821;44.800;10.326;2022-11-20T07:35:24;7.20;99.90
32348;DHT22;18821;44.800;10.326;2022-11-20T07:37:50;7.20;99.90
32348;DHT22;18821;44.800;10.326;2022-11-20T07:40:16;7.30;99.90
32348;DHT22;18821;44.800;10.326;2022-11-20T07:42:52;7.50;99.90
32348;DHT22;18821;44.800;10.326;2022-11-20T07:45:19;7.40;99.90
32348;DHT22;18821;44.800;10.326;2022-11-20T07:47:45;7.40;99.90
32348;DHT22;18821;44.800;10.326;2022-11-20T07:50:12;7.30;99.90
32348;DHT22;18821;44.800;10.326;2022-11-20T07:52:38;7.30;99.90
32348;DHT22;18821;44.800;10.326;2022-11-20T07:55:04;7.40;99.90
32348;DHT22;18821;44.800;10.326;2022-11-20T07:57:30;7.30;99.90
32348;DHT22;18821;44.800;10.326;2022-11-20T07:59:56;7.10;99.90
32348;DHT22;18821;44.800;10.326;2022-11-20T08:02:22;7.00;99.90
32348;DHT22;18821;44.800;10.326;2022-11-20T08:04:48;7.00;99.90
32348;DHT22;18821;44.800;10.326;2022-11-20T08:07:14;7.10;99.90
32348;DHT22;18821;44.800;10.326;2022-11-20T08:09:40;7.30;99.90
32348;DHT22;18821;44.800;10.326;2022-11-20T08:12:06;7.50;99.90
32348;DHT22;18821;44.800;10.326;2022-11-20T08:14:51;7.60;99.90
32348;DHT22;18821;44.800;10.326;2022-11-20T08:17:16;7.70;99.90
32348;DHT22;18821;44.800;10.326;2022-11-20T08:19:42;7.60;99.90
32348;DHT22;18821;44.800;10.326;2022-11-20T08:22:08;7.70;99.90
32348;DHT22;18821;44.800;10.326;2022-11-20T08:24:34;7.80;99.90
32348;DHT22;18821;44.800;10.326;2022-11-20T08:27:00;7.90;99.90
32348;DHT22;18821;44.800;10.326;2022-11-20T08:29:27;7.70;99.90
32348;DHT22;18821;44.800;10.326;2022-11-20T08:31:52;7.70;99.90
32348;DHT22;18821;44.800;10.326;2022-11-20T08:34:18;7.50;99.90
32348;DHT22;18821;44.800;10.326;2022-11-20T08:36:44;7.50;99.90
32348;DHT22;18821;44.800;10.326;2022-11-20T08:39:12;7.50;99.90
32348;DHT22;18821;44.800;10.326;2022-11-20T08:41:38;7.50;99.90
32348;DHT22;18821;44.800;10.326;2022-11-20T08:44:06;7.60;99.90
32348;DHT22;18821;44.800;10.326;2022-11-20T08:46:38;7.60;99.90
32348;DHT22;18821;44.800;10.326;2022-11-20T08:49:06;7.80;99.90
32348;DHT22;18821;44.800;10.326;2022-11-20T08:51:32;8.00;99.90
32348;DHT22;18821;44.800;10.326;2022-11-20T08:53:58;8.00;99.90
32348;DHT22;18821;44.800;10.326;2022-11-20T08:56:24;8.00;99.90
32348;DHT22;18821;44.800;10.326;2022-11-20T08:58:51;7.80;99.90
32348;DHT22;18821;44.800;10.326;2022-11-20T09:01:18;7.60;99.90
32348;DHT22;18821;44.800;10.326;2022-11-20T09:03:45;7.50;99.90
32348;DHT22;18821;44.800;10.326;2022-11-20T09:06:12;7.50;99.90
32348;DHT22;18821;44.800;10.326;2022-11-20T09:08:38;7.60;99.90
32348;DHT22;18821;44.800;10.326;2022-11-20T09:11:04;7.80;99.90
32348;DHT22;18821;44.800;10.326;2022-11-20T09:13:31;7.90;99.90
32348;DHT22;18821;44.800;10.326;2022-11-20T09:16:00;8.20;99.90
32348;DHT22;18821;44.800;10.326;2022-11-20T09:18:27;8.40;99.90
32348;DHT22;18821;44.800;10.326;2022-11-20T09:20:58;8.60;99.90
32348;DHT22;18821;44.800;10.326;2022-11-20T09:23:25;8.60;99.90
32348;DHT22;18821;44.800;10.326;2022-11-20T09:25:51;8.70;99.90
32348;DHT22;18821;44.800;10.326;2022-11-20T09:28:18;8.70;99.90
32348;DHT22;18821;44.800;10.326;2022-11-20T09:30:44;9.00;99.90
32348;DHT22;18821;44.800;10.326;2022-11-20T09:33:10;9.40;99.90
32348;DHT22;18821;44.800;10.326;2022-11-20T09:35:36;9.60;99.90
32348;DHT22;18821;44.800;10.326;2022-11-20T09:38:08;9.40;99.90
32348;DHT22;18821;44.800;10.326;2022-11-20T09:40:39;9.00;99.90
32348;DHT22;18821;44.800;10.326;2022-11-20T09:54:21;8.30;99.90
32348;DHT22;18821;44.800;10.326;2022-11-20T09:56:53;8.30;99.90
32348;DHT22;18821;44.800;10.326;2022-11-20T09:59:38;8.20;99.90
32348;DHT22;18821;44.800;10.326;2022-11-20T10:05:19;8.40;99.90
32348;DHT22;18821;44.800;10.326;2022-11-20T10:08:07;8.50;99.90
32348;DHT22;18821;44.800;10.326;2022-11-20T10:16:42;8.90;99.90
32348;DHT22;18821;44.800;10.326;2022-11-20T10:25:16;9.40;99.90
32348;DHT22;18821;44.800;10.326;2022-11-20T10:30:37;9.20;99.90
32348;DHT22;18821;44.800;10.326;2022-11-20T10:33:26;9.20;99.90
32348;DHT22;18821;44.800;10.326;2022-11-20T10:36:26;9.30;99.90
32348;DHT22;18821;44.800;10.326;2022-11-20T10:39:05;9.40;99.90
32348;DHT22;18821;44.800;10.326;2022-11-20T10:41:38;9.40;99.90
32348;DHT22;18821;44.800;10.326;2022-11-20T10:44:22;9.20;99.90
32348;DHT22;18821;44.800;10.326;2022-11-20T10:47:15;9.30;99.90
32348;DHT22;18821;44.800;10.326;2022-11-20T10:49:45;9.10;99.90
32348;DHT22;18821;44.800;10.326;2022-11-20T10:55:32;9.00;99.90
32348;DHT22;18821;44.800;10.326;2022-11-20T11:00:11;9.20;99.90
32348;DHT22;18821;44.800;10.326;2022-11-20T11:02:48;9.20;99.90
32348;DHT22;18821;44.800;10.326;2022-11-20T11:05:47;9.30;99.90
32348;DHT22;18821;44.800;10.326;2022-11-20T11:08:17;9.30;99.90
32348;DHT22;18821;44.800;10.326;2022-11-20T11:11:00;9.30;99.90
32348;DHT22;18821;44.800;10.326;2022-11-20T11:13:30;9.40;99.90
32348;DHT22;18821;44.800;10.326;2022-11-20T11:15:56;9.60;99.90
32348;DHT22;18821;44.800;10.326;2022-11-20T11:20:55;9.60;99.90
32348;DHT22;18821;44.800;10.326;2022-11-20T11:23:42;9.70;99.90
32348;DHT22;18821;44.800;10.326;2022-11-20T11:26:23;9.80;99.90
32348;DHT22;18821;44.800;10.326;2022-11-20T11:29:01;9.80;99.90
32348;DHT22;18821;44.800;10.326;2022-11-20T11:31:33;9.80;99.90
32348;DHT22;18821;44.800;10.326;2022-11-20T11:34:05;9.80;99.90
32348;DHT22;18821;44.800;10.326;2022-11-20T11:36:33;10.00;99.90
32348;DHT22;18821;44.800;10.326;2022-11-20T11:39:01;10.00;99.90
32348;DHT22;18821;44.800;10.326;2022-11-20T11:41:34;9.90;99.90
32348;DHT22;18821;44.800;10.326;2022-11-20T11:44:17;10.00;99.90
32348;DHT22;18821;44.800;10.326;2022-11-20T11:47:08;10.00;99.90
32348;DHT22;18821;44.800;10.326;2022-11-20T11:49:35;10.00;99.90
32348;DHT22;18821;44.800;10.326;2022-11-20T11:54:57;10.10;99.90
32348;DHT22;18821;44.800;10.326;2022-11-20T12:00:08;10.20;99.90
32348;DHT22;18821;44.800;10.326;2022-11-20T12:05:27;9.80;99.90
32348;DHT22;18821;44.800;10.326;2022-11-20T12:15:49;10.10;99.90
32348;DHT22;18821;44.800;10.326;2022-11-20T12:18:18;10.30;99.90
32348;DHT22;18821;44.800;10.326;2022-11-20T12:20:57;10.40;99.90
32348;DHT22;18821;44.800;10.326;2022-11-20T12:23:56;10.60;99.90
32348;DHT22;18821;44.800;10.326;2022-11-20T12:26:40;10.60;99.90
32348;DHT22;18821;44.800;10.326;2022-11-20T12:32:10;10.50;99.90
32348;DHT22;18821;44.800;10.326;2022-11-20T12:40:32;10.90;99.90
32348;DHT22;18821;44.800;10.326;2022-11-20T12:48:44;10.90;99.90
32348;DHT22;18821;44.800;10.326;2022-11-20T12:51:19;10.90;99.90
32348;DHT22;18821;44.800;10.326;2022-11-20T12:56:42;11.10;99.90
32348;DHT22;18821;44.800;10.326;2022-11-20T13:09:08;10.90;99.90
32348;DHT22;18821;44.800;10.326;2022-11-20T13:19:25;10.50;99.90
32348;DHT22;18821;44.800;10.326;2022-11-20T13:21:52;10.60;99.90
32348;DHT22;18821;44.800;10.326;2022-11-20T13:26:44;10.70;99.90
32348;DHT22;18821;44.800;10.326;2022-11-20T13:29:18;10.80;99.90
32348;DHT22;18821;44.800;10.326;2022-11-20T13:31:48;10.80;99.90
32348;DHT22;18821;44.800;10.326;2022-11-20T13:34:26;10.90;99.90
32348;DHT22;18821;44.800;10.326;2022-11-20T13:36:58;11.00;99.90
32348;DHT22;18821;44.800;10.326;2022-11-20T13:39:36;11.00;99.90
32348;DHT22;18821;44.800;10.326;2022-11-20T13:42:20;11.00;99.90
32348;DHT22;18821;44.800;10.326;2022-11-20T13:44:53;10.90;99.90
32348;DHT22;18821;44.800;10.326;2022-11-20T13:47:24;11.10;99.90
32348;DHT22;18821;44.800;10.326;2022-11-20T13:49:52;11.20;99.90
32348;DHT22;18821;44.800;10.326;2022-11-20T14:00:29;11.20;99.90
32348;DHT22;18821;44.800;10.326;2022-11-20T14:03:09;11.30;99.90
32348;DHT22;18821;44.800;10.326;2022-11-20T14:05:40;11.30;99.90
32348;DHT22;18821;44.800;10.326;2022-11-20T14:08:27;11.30;99.90
32348;DHT22;18821;44.800;10.326;2022-11-20T14:11:05;11.40;99.90
32348;DHT22;18821;44.800;10.326;2022-11-20T14:13:31;11.50;99.90
32348;DHT22;18821;44.800;10.326;2022-11-20T14:15:57;11.50;99.90
32348;DHT22;18821;44.800;10.326;2022-11-20T14:18:25;11.60;99.90
32348;DHT22;18821;44.800;10.326;2022-11-20T14:20:51;11.60;99.90
32348;DHT22;18821;44.800;10.326;2022-11-20T14:23:26;11.70;99.90
32348;DHT22;18821;44.800;10.326;2022-11-20T14:25:52;11.70;99.90
32348;DHT22;18821;44.800;10.326;2022-11-20T14:28:28;11.70;99.90
32348;DHT22;18821;44.800;10.326;2022-11-20T14:30:56;11.60;99.90
32348;DHT22;18821;44.800;10.326;2022-11-20T14:33:24;11.60;99.90
32348;DHT22;18821;44.800;10.326;2022-11-20T14:35:53;11.60;99.90
32348;DHT22;18821;44.800;10.326;2022-11-20T14:38:24;11.70;99.90
32348;DHT22;18821;44.800;10.326;2022-11-20T14:40:50;11.60;99.90
32348;DHT22;18821;44.800;10.326;2022-11-20T14:43:18;11.60;99.90
32348;DHT22;18821;44.800;10.326;2022-11-20T14:46:25;11.60;99.90
32348;DHT22;18821;44.800;10.326;2022-11-20T14:48:50;11.60;99.90
32348;DHT22;18821;44.800;10.326;2022-11-20T14:51:39;11.50;99.90
32348;DHT22;18821;44.800;10.326;2022-11-20T14:54:09;11.40;99.90
32348;DHT22;18821;44.800;10.326;2022-11-20T14:56:36;11.40;99.90
32348;DHT22;18821;44.800;10.326;2022-11-20T14:59:02;11.30;99.90
32348;DHT22;18821;44.800;10.326;2022-11-20T15:01:29;11.30;99.90
32348;DHT22;18821;44.800;10.326;2022-11-20T15:04:14;11.30;99.90
32348;DHT22;18821;44.800;10.326;2022-11-20T15:06:50;11.30;99.90
32348;DHT22;18821;44.800;10.326;2022-11-20T15:09:16;11.20;99.90
32348;DHT22;18821;44.800;10.326;2022-11-20T15:11:55;11.10;99.90
32348;DHT22;18821;44.800;10.326;2022-11-20T15:14:23;11.10;99.90
32348;DHT22;18821;44.800;10.326;2022-11-20T15:16:50;11.00;99.90
32348;DHT22;18821;44.800;10.326;2022-11-20T15:19:24;11.00;99.90
32348;DHT22;18821;44.800;10.326;2022-11-20T15:21:50;10.90;99.90
32348;DHT22;18821;44.800;10.326;2022-11-20T15:24:17;10.90;99.90
32348;DHT22;18821;44.800;10.326;2022-11-20T15:26:43;10.90;99.90
32348;DHT22;18821;44.800;10.326;2022-11-20T15:29:14;10.80;99.90
32348;DHT22;18821;44.800;10.326;2022-11-20T15:31:44;10.80;99.90
32348;DHT22;18821;44.800;10.326;2022-11-20T15:34:12;10.80;99.90
32348;DHT22;18821;44.800;10.326;2022-11-20T15:36:42;10.70;99.90
32348;DHT22;18821;44.800;10.326;2022-11-20T15:39:10;10.70;99.90
32348;DHT22;18821;44.800;10.326;2022-11-20T15:41:37;10.60;99.90
32348;DHT22;18821;44.800;10.326;2022-11-20T15:44:04;10.60;99.90
32348;DHT22;18821;44.800;10.326;2022-11-20T15:46:36;10.60;99.90
32348;DHT22;18821;44.800;10.326;2022-11-20T15:49:04;10.60;99.90
32348;DHT22;18821;44.800;10.326;2022-11-20T15:51:51;10.60;99.90
32348;DHT22;18821;44.800;10.326;2022-11-20T15:54:20;10.50;99.90
32348;DHT22;18821;44.800;10.326;2022-11-20T15:56:47;10.50;99.90
32348;DHT22;18821;44.800;10.326;2022-11-20T15:59:13;10.50;99.90
32348;DHT22;18821;44.800;10.326;2022-11-20T16:01:42;10.40;99.90
32348;DHT22;18821;44.800;10.326;2022-11-20T16:04:13;10.40;99.90
32348;DHT22;18821;44.800;10.326;2022-11-20T16:06:39;10.30;99.90
32348;DHT22;18821;44.800;10.326;2022-11-20T16:09:05;10.30;99.90
32348;DHT22;18821;44.800;10.326;2022-11-20T16:11:32;10.30;99.90
32348;DHT22;18821;44.800;10.326;2022-11-20T16:13:58;10.30;99.90
32348;DHT22;18821;44.800;10.326;2022-11-20T16:16:42;10.30;99.90
32348;DHT22;18821;44.800;10.326;2022-11-20T16:19:11;10.20;99.90
32348;DHT22;18821;44.800;10.326;2022-11-20T16:21:37;10.10;99.90
32348;DHT22;18821;44.800;10.326;2022-11-20T16:24:06;10.10;99.90
32348;DHT22;18821;44.800;10.326;2022-11-20T16:26:33;10.10;99.90
32348;DHT22;18821;44.800;10.326;2022-11-20T16:29:00;10.10;99.90
32348;DHT22;18821;44.800;10.326;2022-11-20T16:31:26;10.00;99.90
32348;DHT22;18821;44.800;10.326;2022-11-20T16:33:53;10.00;99.90
32348;DHT22;18821;44.800;10.326;2022-11-20T16:36:21;10.00;99.90
32348;DHT22;18821;44.800;10.326;2022-11-20T16:38:52;9.90;99.90
32348;DHT22;18821;44.800;10.326;2022-11-20T16:41:18;9.90;99.90
32348;DHT22;18821;44.800;10.326;2022-11-20T16:43:45;9.90;99.90
32348;DHT22;18821;44.800;10.326;2022-11-20T16:46:15;9.90;99.90
32348;DHT22;18821;44.800;10.326;2022-11-20T16:48:42;9.80;99.90
32348;DHT22;18821;44.800;10.326;2022-11-20T16:51:09;9.80;99.90
32348;DHT22;18821;44.800;10.326;2022-11-20T16:53:36;9.70;99.90
32348;DHT22;18821;44.800;10.326;2022-11-20T16:56:10;9.70;99.90
32348;DHT22;18821;44.800;10.326;2022-11-20T16:58:36;9.60;99.90
32348;DHT22;18821;44.800;10.326;2022-11-20T17:01:06;9.60;99.90
32348;DHT22;18821;44.800;10.326;2022-11-20T17:03:39;9.50;99.90
32348;DHT22;18821;44.800;10.326;2022-11-20T17:06:32;9.50;99.90
32348;DHT22;18821;44.800;10.326;2022-11-20T17:08:59;9.50;99.90
32348;DHT22;18821;44.800;10.326;2022-11-20T17:11:26;9.40;99.90
32348;DHT22;18821;44.800;10.326;2022-11-20T17:13:57;9.40;99.90
32348;DHT22;18821;44.800;10.326;2022-11-20T17:16:25;9.40;99.90
32348;DHT22;18821;44.800;10.326;2022-11-20T17:18:53;9.30;99.90
32348;DHT22;18821;44.800;10.326;2022-11-20T17:21:20;9.30;99.90
32348;DHT22;18821;44.800;10.326;2022-11-20T17:23:46;9.40;99.90